sensor_id;sensor_type;location;lat;lon;timestamp;P1;durP1;ratioP1;P2;durP2;ratioP2
62623;SDS011;48699;0.000;0.000;2023-05-06T00:00:28;13.65;;;4.32;;
62623;SDS011;48699;0.000;0.000;2023-05-06T00:02:53;9.63;;;3.88;;
62623;SDS011;48699;0.000;0.000;2023-05-06T00:05:19;11.77;;;4.05;;
62623;SDS011;48699;0.000;0.000;2023-05-06T00:07:44;12.70;;;4.78;;
62623;SDS011;48699;0.000;0.000;2023-05-06T00:10:12;17.65;;;4.53;;
62623;SDS011;48699;0.000;0.000;2023-05-06T00:12:38;12.30;;;4.47;;
62623;SDS011;48699;0.000;0.000;2023-05-06T00:15:03;10.18;;;4.60;;
62623;SDS011;48699;0.000;0.000;2023-05-06T00:17:29;8.52;;;4.45;;
62623;SDS011;48699;0.000;0.000;2023-05-06T00:19:55;12.10;;;4.78;;
62623;SDS011;48699;0.000;0.000;2023-05-06T00:22:22;12.35;;;4.05;;
62623;SDS011;48699;0.000;0.000;2023-05-06T00:24:48;8.38;;;4.38;;
62623;SDS011;48699;0.000;0.000;2023-05-06T00:27:13;8.70;;;4.30;;
62623;SDS011;48699;0.000;0.000;2023-05-06T00:29:39;20.90;;;4.40;;
62623;SDS011;48699;0.000;0.000;2023-05-06T00:32:04;13.73;;;4.25;;
62623;SDS011;48699;0.000;0.000;2023-05-06T00:34:29;11.90;;;4.55;;
62623;SDS011;48699;0.000;0.000;2023-05-06T00:36:55;17.25;;;4.47;;
62623;SDS011;48699;0.000;0.000;2023-05-06T00:39:20;10.77;;;4.05;;
62623;SDS011;48699;0.000;0.000;2023-05-06T00:41:46;14.02;;;4.50;;
62623;SDS011;48699;0.000;0.000;2023-05-06T00:44:11;10.80;;;4.28;;
62623;SDS011;48699;0.000;0.000;2023-05-06T00:46:36;10.43;;;4.40;;
62623;SDS011;48699;0.000;0.000;2023-05-06T00:49:02;17.45;;;4.63;;
62623;SDS011;48699;0.000;0.000;2023-05-06T00:51:27;10.15;;;4.60;;
62623;SDS011;48699;0.000;0.000;2023-05-06T00:53:53;12.30;;;5.10;;
62623;SDS011;48699;0.000;0.000;2023-05-06T00:56:18;16.38;;;5.10;;
62623;SDS011;48699;0.000;0.000;2023-05-06T00:58:44;12.63;;;4.38;;
62623;SDS011;48699;0.000;0.000;2023-05-06T01:01:09;15.05;;;4.70;;
62623;SDS011;48699;0.000;0.000;2023-05-06T01:03:35;10.65;;;4.43;;
62623;SDS011;48699;0.000;0.000;2023-05-06T01:09:06;11.00;;;4.53;;
62623;SDS011;48699;0.000;0.000;2023-05-06T01:11:44;10.80;;;4.55;;
62623;SDS011;48699;0.000;0.000;2023-05-06T01:17:06;15.27;;;5.05;;
62623;SDS011;48699;0.000;0.000;2023-05-06T01:22:10;13.05;;;4.70;;
62623;SDS011;48699;0.000;0.000;2023-05-06T01:24:37;10.40;;;4.15;;
62623;SDS011;48699;0.000;0.000;2023-05-06T01:27:04;12.00;;;4.72;;
62623;SDS011;48699;0.000;0.000;2023-05-06T01:29:30;13.70;;;5.50;;
62623;SDS011;48699;0.000;0.000;2023-05-06T01:31:56;16.40;;;4.72;;
62623;SDS011;48699;0.000;0.000;2023-05-06T01:34:31;9.35;;;4.53;;
62623;SDS011;48699;0.000;0.000;2023-05-06T01:37:28;17.33;;;5.50;;
62623;SDS011;48699;0.000;0.000;2023-05-06T01:42:17;14.02;;;4.93;;
62623;SDS011;48699;0.000;0.000;2023-05-06T01:44:43;11.93;;;4.43;;
62623;SDS011;48699;0.000;0.000;2023-05-06T01:47:09;16.08;;;5.82;;
62623;SDS011;48699;0.000;0.000;2023-05-06T01:49:35;14.10;;;4.95;;
62623;SDS011;48699;0.000;0.000;2023-05-06T01:52:01;10.27;;;4.97;;
62623;SDS011;48699;0.000;0.000;2023-05-06T01:54:26;17.50;;;4.47;;
62623;SDS011;48699;0.000;0.000;2023-05-06T01:56:51;15.93;;;5.20;;
62623;SDS011;48699;0.000;0.000;2023-05-06T01:59:18;11.88;;;5.35;;
62623;SDS011;48699;0.000;0.000;2023-05-06T02:01:43;13.18;;;5.15;;
62623;SDS011;48699;0.000;0.000;2023-05-06T02:04:08;14.98;;;5.55;;
62623;SDS011;48699;0.000;0.000;2023-05-06T02:06:34;12.07;;;4.80;;
62623;SDS011;48699;0.000;0.000;2023-05-06T02:08:59;13.77;;;6.22;;
62623;SDS011;48699;0.000;0.000;2023-05-06T02:11:24;13.02;;;5.38;;
62623;SDS011;48699;0.000;0.000;2023-05-06T02:13:50;11.35;;;5.00;;
62623;SDS011;48699;0.000;0.000;2023-05-06T02:16:15;12.57;;;5.63;;
62623;SDS011;48699;0.000;0.000;2023-05-06T02:18:40;13.93;;;5.38;;
62623;SDS011;48699;0.000;0.000;2023-05-06T02:21:06;11.75;;;4.57;;
62623;SDS011;48699;0.000;0.000;2023-05-06T02:23:33;18.52;;;5.75;;
62623;SDS011;48699;0.000;0.000;2023-05-06T02:25:58;10.82;;;4.97;;
62623;SDS011;48699;0.000;0.000;2023-05-06T02:28:24;15.57;;;5.47;;
62623;SDS011;48699;0.000;0.000;2023-05-06T02:30:53;13.88;;;5.55;;
62623;SDS011;48699;0.000;0.000;2023-05-06T02:33:19;19.92;;;6.65;;
62623;SDS011;48699;0.000;0.000;2023-05-06T02:35:45;18.80;;;5.75;;
62623;SDS011;48699;0.000;0.000;2023-05-06T02:38:11;17.42;;;6.00;;
62623;SDS011;48699;0.000;0.000;2023-05-06T02:40:36;15.60;;;5.38;;
62623;SDS011;48699;0.000;0.000;2023-05-06T02:43:01;15.65;;;6.10;;
62623;SDS011;48699;0.000;0.000;2023-05-06T02:45:27;12.50;;;6.40;;
62623;SDS011;48699;0.000;0.000;2023-05-06T02:47:52;11.77;;;4.90;;
62623;SDS011;48699;0.000;0.000;2023-05-06T02:50:17;12.02;;;6.47;;
62623;SDS011;48699;0.000;0.000;2023-05-06T02:52:42;15.77;;;7.85;;
62623;SDS011;48699;0.000;0.000;2023-05-06T02:55:08;18.45;;;6.68;;
62623;SDS011;48699;0.000;0.000;2023-05-06T02:57:33;15.20;;;6.53;;
62623;SDS011;48699;0.000;0.000;2023-05-06T02:59:59;16.67;;;6.43;;
62623;SDS011;48699;0.000;0.000;2023-05-06T03:02:24;19.90;;;7.63;;
62623;SDS011;48699;0.000;0.000;2023-05-06T03:04:49;15.95;;;5.72;;
62623;SDS011;48699;0.000;0.000;2023-05-06T03:07:15;12.45;;;5.90;;
62623;SDS011;48699;0.000;0.000;2023-05-06T03:09:41;13.88;;;6.30;;
62623;SDS011;48699;0.000;0.000;2023-05-06T03:12:06;20.05;;;6.90;;
62623;SDS011;48699;0.000;0.000;2023-05-06T03:14:31;15.48;;;6.57;;
62623;SDS011;48699;0.000;0.000;2023-05-06T03:16:57;15.82;;;6.65;;
62623;SDS011;48699;0.000;0.000;2023-05-06T03:19:22;16.00;;;6.57;;
62623;SDS011;48699;0.000;0.000;2023-05-06T03:21:47;15.40;;;7.00;;
62623;SDS011;48699;0.000;0.000;2023-05-06T03:24:13;14.88;;;7.00;;
62623;SDS011;48699;0.000;0.000;2023-05-06T03:26:38;22.85;;;7.05;;
62623;SDS011;48699;0.000;0.000;2023-05-06T03:29:04;22.25;;;7.85;;
62623;SDS011;48699;0.000;0.000;2023-05-06T03:31:29;15.38;;;7.28;;
62623;SDS011;48699;0.000;0.000;2023-05-06T03:33:54;18.42;;;7.88;;
62623;SDS011;48699;0.000;0.000;2023-05-06T03:36:19;18.25;;;7.65;;
62623;SDS011;48699;0.000;0.000;2023-05-06T03:38:47;20.60;;;9.65;;
62623;SDS011;48699;0.000;0.000;2023-05-06T03:41:13;24.05;;;8.75;;
62623;SDS011;48699;0.000;0.000;2023-05-06T03:43:38;18.35;;;7.75;;
62623;SDS011;48699;0.000;0.000;2023-05-06T03:46:04;19.17;;;7.15;;
62623;SDS011;48699;0.000;0.000;2023-05-06T03:48:29;20.50;;;7.85;;
62623;SDS011;48699;0.000;0.000;2023-05-06T03:50:55;16.88;;;7.85;;
62623;SDS011;48699;0.000;0.000;2023-05-06T03:53:20;15.50;;;7.95;;
62623;SDS011;48699;0.000;0.000;2023-05-06T03:55:46;16.70;;;7.38;;
62623;SDS011;48699;0.000;0.000;2023-05-06T03:58:11;14.85;;;7.72;;
62623;SDS011;48699;0.000;0.000;2023-05-06T04:00:36;15.38;;;8.07;;
62623;SDS011;48699;0.000;0.000;2023-05-06T04:03:02;19.15;;;9.82;;
62623;SDS011;48699;0.000;0.000;2023-05-06T04:05:27;17.38;;;9.13;;
62623;SDS011;48699;0.000;0.000;2023-05-06T04:07:52;23.10;;;9.60;;
62623;SDS011;48699;0.000;0.000;2023-05-06T04:10:18;18.83;;;10.27;;
62623;SDS011;48699;0.000;0.000;2023-05-06T04:12:44;19.83;;;10.38;;
62623;SDS011;48699;0.000;0.000;2023-05-06T04:15:09;20.55;;;9.45;;
62623;SDS011;48699;0.000;0.000;2023-05-06T04:17:35;23.00;;;11.13;;
62623;SDS011;48699;0.000;0.000;2023-05-06T04:20:00;18.67;;;9.52;;
62623;SDS011;48699;0.000;0.000;2023-05-06T04:22:32;14.90;;;7.95;;
62623;SDS011;48699;0.000;0.000;2023-05-06T04:24:58;14.15;;;8.13;;
62623;SDS011;48699;0.000;0.000;2023-05-06T04:27:25;16.70;;;8.88;;
62623;SDS011;48699;0.000;0.000;2023-05-06T04:29:53;16.80;;;9.52;;
62623;SDS011;48699;0.000;0.000;2023-05-06T04:32:19;21.45;;;9.05;;
62623;SDS011;48699;0.000;0.000;2023-05-06T04:34:44;17.83;;;8.45;;
62623;SDS011;48699;0.000;0.000;2023-05-06T04:37:11;17.02;;;9.05;;
62623;SDS011;48699;0.000;0.000;2023-05-06T04:39:37;16.08;;;8.70;;
62623;SDS011;48699;0.000;0.000;2023-05-06T04:42:03;15.98;;;7.95;;
62623;SDS011;48699;0.000;0.000;2023-05-06T04:44:29;13.98;;;7.97;;
62623;SDS011;48699;0.000;0.000;2023-05-06T04:46:54;18.58;;;8.77;;
62623;SDS011;48699;0.000;0.000;2023-05-06T04:49:20;17.70;;;8.35;;
62623;SDS011;48699;0.000;0.000;2023-05-06T04:51:45;18.75;;;8.57;;
62623;SDS011;48699;0.000;0.000;2023-05-06T04:54:11;15.82;;;7.78;;
62623;SDS011;48699;0.000;0.000;2023-05-06T04:56:36;14.20;;;8.50;;
62623;SDS011;48699;0.000;0.000;2023-05-06T04:59:01;20.77;;;7.88;;
62623;SDS011;48699;0.000;0.000;2023-05-06T05:01:27;18.58;;;9.60;;
62623;SDS011;48699;0.000;0.000;2023-05-06T05:03:52;16.27;;;9.68;;
62623;SDS011;48699;0.000;0.000;2023-05-06T05:06:17;18.50;;;8.88;;
62623;SDS011;48699;0.000;0.000;2023-05-06T05:08:43;17.92;;;10.77;;
62623;SDS011;48699;0.000;0.000;2023-05-06T05:11:08;15.80;;;8.68;;
62623;SDS011;48699;0.000;0.000;2023-05-06T05:13:33;16.65;;;9.10;;
62623;SDS011;48699;0.000;0.000;2023-05-06T05:15:59;16.73;;;8.85;;
62623;SDS011;48699;0.000;0.000;2023-05-06T05:18:25;14.60;;;8.30;;
62623;SDS011;48699;0.000;0.000;2023-05-06T05:20:50;19.98;;;9.63;;
62623;SDS011;48699;0.000;0.000;2023-05-06T05:23:16;15.63;;;8.55;;
62623;SDS011;48699;0.000;0.000;2023-05-06T05:25:41;17.92;;;9.10;;
62623;SDS011;48699;0.000;0.000;2023-05-06T05:28:06;16.70;;;7.50;;
62623;SDS011;48699;0.000;0.000;2023-05-06T05:30:31;21.85;;;9.00;;
62623;SDS011;48699;0.000;0.000;2023-05-06T05:32:57;19.40;;;8.68;;
62623;SDS011;48699;0.000;0.000;2023-05-06T05:35:22;19.10;;;8.98;;
62623;SDS011;48699;0.000;0.000;2023-05-06T05:37:48;14.70;;;8.32;;
62623;SDS011;48699;0.000;0.000;2023-05-06T05:40:13;19.08;;;9.57;;
62623;SDS011;48699;0.000;0.000;2023-05-06T05:42:38;15.32;;;8.25;;
62623;SDS011;48699;0.000;0.000;2023-05-06T05:45:04;15.52;;;8.45;;
62623;SDS011;48699;0.000;0.000;2023-05-06T05:47:30;20.58;;;8.50;;
62623;SDS011;48699;0.000;0.000;2023-05-06T05:49:55;17.52;;;8.65;;
62623;SDS011;48699;0.000;0.000;2023-05-06T05:52:21;14.98;;;8.30;;
62623;SDS011;48699;0.000;0.000;2023-05-06T05:54:46;16.92;;;9.10;;
62623;SDS011;48699;0.000;0.000;2023-05-06T05:57:11;18.27;;;9.07;;
62623;SDS011;48699;0.000;0.000;2023-05-06T05:59:37;14.50;;;8.27;;
62623;SDS011;48699;0.000;0.000;2023-05-06T06:02:02;16.73;;;8.63;;
62623;SDS011;48699;0.000;0.000;2023-05-06T06:04:27;19.30;;;9.43;;
62623;SDS011;48699;0.000;0.000;2023-05-06T06:06:54;17.13;;;8.57;;
62623;SDS011;48699;0.000;0.000;2023-05-06T06:09:21;16.58;;;8.13;;
62623;SDS011;48699;0.000;0.000;2023-05-06T06:11:47;15.57;;;8.15;;
62623;SDS011;48699;0.000;0.000;2023-05-06T06:14:12;20.85;;;8.82;;
62623;SDS011;48699;0.000;0.000;2023-05-06T06:16:37;16.40;;;9.23;;
62623;SDS011;48699;0.000;0.000;2023-05-06T06:19:03;14.75;;;8.93;;
62623;SDS011;48699;0.000;0.000;2023-05-06T06:21:28;16.50;;;9.32;;
62623;SDS011;48699;0.000;0.000;2023-05-06T06:23:53;20.83;;;8.15;;
62623;SDS011;48699;0.000;0.000;2023-05-06T06:26:19;22.85;;;9.20;;
62623;SDS011;48699;0.000;0.000;2023-05-06T06:28:45;17.58;;;8.52;;
62623;SDS011;48699;0.000;0.000;2023-05-06T06:31:11;18.23;;;8.63;;
62623;SDS011;48699;0.000;0.000;2023-05-06T06:33:37;15.27;;;7.55;;
62623;SDS011;48699;0.000;0.000;2023-05-06T06:36:02;18.27;;;7.93;;
62623;SDS011;48699;0.000;0.000;2023-05-06T06:38:27;14.27;;;7.88;;
62623;SDS011;48699;0.000;0.000;2023-05-06T06:40:53;14.80;;;6.97;;
62623;SDS011;48699;0.000;0.000;2023-05-06T06:43:18;15.38;;;7.80;;
62623;SDS011;48699;0.000;0.000;2023-05-06T06:45:46;16.67;;;7.32;;
62623;SDS011;48699;0.000;0.000;2023-05-06T06:48:12;14.73;;;6.80;;
62623;SDS011;48699;0.000;0.000;2023-05-06T06:50:37;22.33;;;7.82;;
62623;SDS011;48699;0.000;0.000;2023-05-06T06:53:03;19.70;;;8.63;;
62623;SDS011;48699;0.000;0.000;2023-05-06T06:55:28;16.42;;;8.60;;
62623;SDS011;48699;0.000;0.000;2023-05-06T06:57:54;14.50;;;7.85;;
62623;SDS011;48699;0.000;0.000;2023-05-06T07:00:19;18.25;;;8.02;;
62623;SDS011;48699;0.000;0.000;2023-05-06T07:02:44;19.45;;;9.73;;
62623;SDS011;48699;0.000;0.000;2023-05-06T07:05:12;13.70;;;7.32;;
62623;SDS011;48699;0.000;0.000;2023-05-06T07:07:37;17.67;;;7.43;;
62623;SDS011;48699;0.000;0.000;2023-05-06T07:10:02;19.23;;;8.35;;
62623;SDS011;48699;0.000;0.000;2023-05-06T07:12:28;16.70;;;7.88;;
62623;SDS011;48699;0.000;0.000;2023-05-06T07:14:54;18.85;;;8.02;;
62623;SDS011;48699;0.000;0.000;2023-05-06T07:17:19;21.98;;;8.38;;
62623;SDS011;48699;0.000;0.000;2023-05-06T07:19:45;15.63;;;8.65;;
62623;SDS011;48699;0.000;0.000;2023-05-06T07:22:10;18.85;;;7.70;;
62623;SDS011;48699;0.000;0.000;2023-05-06T07:24:35;20.88;;;8.43;;
62623;SDS011;48699;0.000;0.000;2023-05-06T07:27:01;13.80;;;8.70;;
62623;SDS011;48699;0.000;0.000;2023-05-06T07:29:36;17.70;;;8.45;;
62623;SDS011;48699;0.000;0.000;2023-05-06T07:32:02;17.88;;;8.02;;
62623;SDS011;48699;0.000;0.000;2023-05-06T07:34:28;16.95;;;8.48;;
62623;SDS011;48699;0.000;0.000;2023-05-06T07:36:56;14.57;;;7.95;;
62623;SDS011;48699;0.000;0.000;2023-05-06T07:39:22;15.60;;;8.55;;
62623;SDS011;48699;0.000;0.000;2023-05-06T07:41:48;17.90;;;8.35;;
62623;SDS011;48699;0.000;0.000;2023-05-06T07:44:13;18.73;;;7.65;;
62623;SDS011;48699;0.000;0.000;2023-05-06T07:46:40;18.35;;;9.13;;
62623;SDS011;48699;0.000;0.000;2023-05-06T07:49:06;19.37;;;9.03;;
62623;SDS011;48699;0.000;0.000;2023-05-06T07:51:31;14.05;;;7.78;;
62623;SDS011;48699;0.000;0.000;2023-05-06T07:53:57;18.58;;;9.15;;
62623;SDS011;48699;0.000;0.000;2023-05-06T07:56:22;22.58;;;8.95;;
62623;SDS011;48699;0.000;0.000;2023-05-06T07:58:47;19.38;;;7.78;;
62623;SDS011;48699;0.000;0.000;2023-05-06T08:01:13;21.65;;;9.55;;
62623;SDS011;48699;0.000;0.000;2023-05-06T08:03:39;20.55;;;9.05;;
62623;SDS011;48699;0.000;0.000;2023-05-06T08:06:04;15.00;;;8.60;;
62623;SDS011;48699;0.000;0.000;2023-05-06T08:08:30;17.55;;;9.40;;
62623;SDS011;48699;0.000;0.000;2023-05-06T08:10:56;21.13;;;9.43;;
62623;SDS011;48699;0.000;0.000;2023-05-06T08:13:22;14.60;;;9.30;;
62623;SDS011;48699;0.000;0.000;2023-05-06T08:15:47;19.13;;;8.93;;
62623;SDS011;48699;0.000;0.000;2023-05-06T08:18:13;16.27;;;8.13;;
62623;SDS011;48699;0.000;0.000;2023-05-06T08:20:38;19.35;;;8.10;;
62623;SDS011;48699;0.000;0.000;2023-05-06T08:23:03;17.90;;;8.35;;
62623;SDS011;48699;0.000;0.000;2023-05-06T08:25:29;15.10;;;8.70;;
62623;SDS011;48699;0.000;0.000;2023-05-06T08:27:54;20.13;;;8.32;;
62623;SDS011;48699;0.000;0.000;2023-05-06T08:30:20;16.67;;;8.82;;
62623;SDS011;48699;0.000;0.000;2023-05-06T08:32:45;13.55;;;8.00;;
62623;SDS011;48699;0.000;0.000;2023-05-06T08:35:11;16.48;;;8.52;;
62623;SDS011;48699;0.000;0.000;2023-05-06T08:37:36;18.88;;;9.30;;
62623;SDS011;48699;0.000;0.000;2023-05-06T08:40:02;19.42;;;10.25;;
62623;SDS011;48699;0.000;0.000;2023-05-06T08:42:29;19.27;;;8.93;;
62623;SDS011;48699;0.000;0.000;2023-05-06T08:44:54;22.80;;;8.65;;
62623;SDS011;48699;0.000;0.000;2023-05-06T08:47:20;19.55;;;8.48;;
62623;SDS011;48699;0.000;0.000;2023-05-06T08:49:46;22.13;;;10.23;;
62623;SDS011;48699;0.000;0.000;2023-05-06T08:52:12;18.83;;;9.40;;
62623;SDS011;48699;0.000;0.000;2023-05-06T08:54:37;20.45;;;9.73;;
62623;SDS011;48699;0.000;0.000;2023-05-06T08:57:04;16.58;;;7.85;;
62623;SDS011;48699;0.000;0.000;2023-05-06T08:59:30;17.58;;;7.70;;
62623;SDS011;48699;0.000;0.000;2023-05-06T09:01:57;19.50;;;9.20;;
62623;SDS011;48699;0.000;0.000;2023-05-06T09:04:26;16.50;;;8.90;;
62623;SDS011;48699;0.000;0.000;2023-05-06T09:06:51;18.23;;;9.27;;
62623;SDS011;48699;0.000;0.000;2023-05-06T09:09:16;20.30;;;8.15;;
62623;SDS011;48699;0.000;0.000;2023-05-06T09:11:42;16.23;;;8.48;;
62623;SDS011;48699;0.000;0.000;2023-05-06T09:14:14;19.80;;;9.27;;
62623;SDS011;48699;0.000;0.000;2023-05-06T09:16:41;15.70;;;8.57;;
62623;SDS011;48699;0.000;0.000;2023-05-06T09:19:10;18.52;;;8.00;;
62623;SDS011;48699;0.000;0.000;2023-05-06T09:21:37;17.60;;;8.07;;
62623;SDS011;48699;0.000;0.000;2023-05-06T09:24:05;24.42;;;9.32;;
62623;SDS011;48699;0.000;0.000;2023-05-06T09:26:32;19.10;;;7.97;;
62623;SDS011;48699;0.000;0.000;2023-05-06T09:28:58;18.55;;;10.10;;
62623;SDS011;48699;0.000;0.000;2023-05-06T09:31:26;18.58;;;7.65;;
62623;SDS011;48699;0.000;0.000;2023-05-06T09:33:53;16.63;;;7.32;;
62623;SDS011;48699;0.000;0.000;2023-05-06T09:36:19;17.02;;;7.63;;
62623;SDS011;48699;0.000;0.000;2023-05-06T09:38:45;16.17;;;7.22;;
62623;SDS011;48699;0.000;0.000;2023-05-06T09:41:11;19.90;;;8.07;;
62623;SDS011;48699;0.000;0.000;2023-05-06T09:43:37;16.35;;;8.85;;
62623;SDS011;48699;0.000;0.000;2023-05-06T09:46:06;16.38;;;8.38;;
62623;SDS011;48699;0.000;0.000;2023-05-06T09:48:32;16.27;;;7.85;;
62623;SDS011;48699;0.000;0.000;2023-05-06T09:50:58;17.13;;;7.60;;
62623;SDS011;48699;0.000;0.000;2023-05-06T09:53:23;14.48;;;7.43;;
62623;SDS011;48699;0.000;0.000;2023-05-06T09:55:49;15.82;;;7.45;;
62623;SDS011;48699;0.000;0.000;2023-05-06T09:58:15;16.15;;;7.40;;
62623;SDS011;48699;0.000;0.000;2023-05-06T10:00:42;12.82;;;6.95;;
62623;SDS011;48699;0.000;0.000;2023-05-06T10:03:08;21.50;;;7.68;;
62623;SDS011;48699;0.000;0.000;2023-05-06T10:05:33;13.10;;;6.10;;
62623;SDS011;48699;0.000;0.000;2023-05-06T10:08:00;13.98;;;7.07;;
62623;SDS011;48699;0.000;0.000;2023-05-06T10:10:28;19.85;;;8.32;;
62623;SDS011;48699;0.000;0.000;2023-05-06T10:12:53;13.93;;;6.95;;
62623;SDS011;48699;0.000;0.000;2023-05-06T10:15:19;15.52;;;7.25;;
62623;SDS011;48699;0.000;0.000;2023-05-06T10:17:44;14.50;;;7.28;;
62623;SDS011;48699;0.000;0.000;2023-05-06T10:20:12;16.17;;;7.30;;
62623;SDS011;48699;0.000;0.000;2023-05-06T10:25:08;16.42;;;7.80;;
62623;SDS011;48699;0.000;0.000;2023-05-06T10:27:40;15.23;;;7.07;;
62623;SDS011;48699;0.000;0.000;2023-05-06T10:30:10;18.17;;;7.05;;
62623;SDS011;48699;0.000;0.000;2023-05-06T10:32:41;11.95;;;7.00;;
62623;SDS011;48699;0.000;0.000;2023-05-06T10:35:09;19.58;;;8.15;;
62623;SDS011;48699;0.000;0.000;2023-05-06T10:37:40;16.52;;;8.95;;
62623;SDS011;48699;0.000;0.000;2023-05-06T10:40:07;21.25;;;8.15;;
62623;SDS011;48699;0.000;0.000;2023-05-06T10:42:34;17.55;;;8.25;;
62623;SDS011;48699;0.000;0.000;2023-05-06T10:45:00;16.55;;;8.25;;
62623;SDS011;48699;0.000;0.000;2023-05-06T10:47:28;19.00;;;8.50;;
62623;SDS011;48699;0.000;0.000;2023-05-06T10:50:25;20.27;;;7.93;;
62623;SDS011;48699;0.000;0.000;2023-05-06T10:52:52;22.60;;;8.27;;
62623;SDS011;48699;0.000;0.000;2023-05-06T10:55:32;24.80;;;8.65;;
62623;SDS011;48699;0.000;0.000;2023-05-06T10:58:01;19.70;;;8.90;;
62623;SDS011;48699;0.000;0.000;2023-05-06T11:00:31;21.35;;;10.68;;
62623;SDS011;48699;0.000;0.000;2023-05-06T11:03:04;23.15;;;9.93;;
62623;SDS011;48699;0.000;0.000;2023-05-06T11:05:47;21.85;;;8.23;;
62623;SDS011;48699;0.000;0.000;2023-05-06T11:08:13;21.55;;;9.57;;
62623;SDS011;48699;0.000;0.000;2023-05-06T11:10:39;20.83;;;9.38;;
62623;SDS011;48699;0.000;0.000;2023-05-06T11:13:16;19.95;;;9.82;;
62623;SDS011;48699;0.000;0.000;2023-05-06T11:15:44;18.10;;;9.60;;
62623;SDS011;48699;0.000;0.000;2023-05-06T11:24:11;20.30;;;9.32;;
62623;SDS011;48699;0.000;0.000;2023-05-06T11:26:23;22.30;;;9.98;;
62623;SDS011;48699;0.000;0.000;2023-05-06T11:28:49;22.00;;;9.32;;
62623;SDS011;48699;0.000;0.000;2023-05-06T11:31:15;19.98;;;9.65;;
62623;SDS011;48699;0.000;0.000;2023-05-06T11:33:45;24.50;;;10.23;;
62623;SDS011;48699;0.000;0.000;2023-05-06T11:36:15;18.98;;;9.02;;
62623;SDS011;48699;0.000;0.000;2023-05-06T11:38:46;25.83;;;10.50;;
62623;SDS011;48699;0.000;0.000;2023-05-06T11:41:13;17.73;;;7.55;;
62623;SDS011;48699;0.000;0.000;2023-05-06T11:43:44;18.52;;;8.93;;
62623;SDS011;48699;0.000;0.000;2023-05-06T11:46:10;23.30;;;9.48;;
62623;SDS011;48699;0.000;0.000;2023-05-06T11:48:35;24.92;;;9.20;;
62623;SDS011;48699;0.000;0.000;2023-05-06T11:51:00;20.48;;;8.98;;
62623;SDS011;48699;0.000;0.000;2023-05-06T11:53:26;17.95;;;8.68;;
62623;SDS011;48699;0.000;0.000;2023-05-06T11:55:52;16.85;;;9.40;;
62623;SDS011;48699;0.000;0.000;2023-05-06T11:58:24;16.85;;;8.70;;
62623;SDS011;48699;0.000;0.000;2023-05-06T12:00:58;23.27;;;10.18;;
62623;SDS011;48699;0.000;0.000;2023-05-06T12:03:24;21.45;;;9.68;;
62623;SDS011;48699;0.000;0.000;2023-05-06T12:05:51;21.70;;;10.18;;
62623;SDS011;48699;0.000;0.000;2023-05-06T12:08:24;17.33;;;8.73;;
62623;SDS011;48699;0.000;0.000;2023-05-06T12:10:51;18.08;;;8.57;;
62623;SDS011;48699;0.000;0.000;2023-05-06T12:13:18;20.45;;;10.25;;
62623;SDS011;48699;0.000;0.000;2023-05-06T12:15:44;19.93;;;10.37;;
62623;SDS011;48699;0.000;0.000;2023-05-06T12:18:09;20.38;;;9.27;;
62623;SDS011;48699;0.000;0.000;2023-05-06T12:20:35;26.60;;;9.65;;
62623;SDS011;48699;0.000;0.000;2023-05-06T12:23:07;20.48;;;9.25;;
62623;SDS011;48699;0.000;0.000;2023-05-06T12:25:34;21.33;;;9.52;;
62623;SDS011;48699;0.000;0.000;2023-05-06T12:27:59;20.23;;;9.23;;
62623;SDS011;48699;0.000;0.000;2023-05-06T12:30:31;24.02;;;10.00;;
62623;SDS011;48699;0.000;0.000;2023-05-06T12:32:58;20.02;;;9.18;;
62623;SDS011;48699;0.000;0.000;2023-05-06T12:35:27;24.42;;;10.85;;
62623;SDS011;48699;0.000;0.000;2023-05-06T12:37:53;18.60;;;9.27;;
62623;SDS011;48699;0.000;0.000;2023-05-06T12:40:19;18.80;;;9.15;;
62623;SDS011;48699;0.000;0.000;2023-05-06T12:42:51;20.88;;;9.35;;
62623;SDS011;48699;0.000;0.000;2023-05-06T12:45:17;19.10;;;10.00;;
62623;SDS011;48699;0.000;0.000;2023-05-06T12:47:52;19.83;;;9.60;;
62623;SDS011;48699;0.000;0.000;2023-05-06T12:50:35;17.55;;;9.13;;
62623;SDS011;48699;0.000;0.000;2023-05-06T12:53:04;21.48;;;10.48;;
62623;SDS011;48699;0.000;0.000;2023-05-06T12:55:31;19.85;;;10.52;;
62623;SDS011;48699;0.000;0.000;2023-05-06T12:57:59;22.08;;;10.48;;
62623;SDS011;48699;0.000;0.000;2023-05-06T13:00:25;23.00;;;10.52;;
62623;SDS011;48699;0.000;0.000;2023-05-06T13:02:50;22.30;;;10.13;;
62623;SDS011;48699;0.000;0.000;2023-05-06T13:05:16;28.40;;;11.60;;
62623;SDS011;48699;0.000;0.000;2023-05-06T13:07:41;26.02;;;10.23;;
62623;SDS011;48699;0.000;0.000;2023-05-06T13:10:07;22.30;;;10.52;;
62623;SDS011;48699;0.000;0.000;2023-05-06T13:12:32;23.98;;;10.45;;
62623;SDS011;48699;0.000;0.000;2023-05-06T13:14:59;21.02;;;11.20;;
62623;SDS011;48699;0.000;0.000;2023-05-06T13:17:25;23.77;;;10.65;;
62623;SDS011;48699;0.000;0.000;2023-05-06T13:19:51;25.63;;;10.23;;
62623;SDS011;48699;0.000;0.000;2023-05-06T13:22:17;27.67;;;14.27;;
62623;SDS011;48699;0.000;0.000;2023-05-06T13:24:42;21.65;;;10.50;;
62623;SDS011;48699;0.000;0.000;2023-05-06T13:27:08;29.63;;;10.93;;
62623;SDS011;48699;0.000;0.000;2023-05-06T13:29:33;20.80;;;9.68;;
62623;SDS011;48699;0.000;0.000;2023-05-06T13:31:58;18.08;;;10.50;;
62623;SDS011;48699;0.000;0.000;2023-05-06T13:34:24;21.58;;;10.27;;
62623;SDS011;48699;0.000;0.000;2023-05-06T13:36:50;23.02;;;9.70;;
62623;SDS011;48699;0.000;0.000;2023-05-06T13:39:15;18.88;;;9.85;;
62623;SDS011;48699;0.000;0.000;2023-05-06T13:41:41;22.02;;;11.23;;
62623;SDS011;48699;0.000;0.000;2023-05-06T13:44:07;21.42;;;10.65;;
62623;SDS011;48699;0.000;0.000;2023-05-06T13:46:32;24.67;;;10.25;;
62623;SDS011;48699;0.000;0.000;2023-05-06T13:48:57;26.80;;;11.32;;
62623;SDS011;48699;0.000;0.000;2023-05-06T13:51:23;21.60;;;10.43;;
62623;SDS011;48699;0.000;0.000;2023-05-06T13:53:51;23.83;;;9.68;;
62623;SDS011;48699;0.000;0.000;2023-05-06T13:56:16;19.80;;;10.75;;
62623;SDS011;48699;0.000;0.000;2023-05-06T13:58:42;22.67;;;12.40;;
62623;SDS011;48699;0.000;0.000;2023-05-06T14:01:07;26.08;;;11.18;;
62623;SDS011;48699;0.000;0.000;2023-05-06T14:03:32;22.45;;;10.50;;
62623;SDS011;48699;0.000;0.000;2023-05-06T14:05:58;24.88;;;10.13;;
62623;SDS011;48699;0.000;0.000;2023-05-06T14:08:23;25.17;;;12.05;;
62623;SDS011;48699;0.000;0.000;2023-05-06T14:10:48;23.38;;;10.88;;
62623;SDS011;48699;0.000;0.000;2023-05-06T14:13:14;21.58;;;10.07;;
62623;SDS011;48699;0.000;0.000;2023-05-06T14:15:39;19.63;;;10.55;;
62623;SDS011;48699;0.000;0.000;2023-05-06T14:18:05;20.10;;;10.38;;
62623;SDS011;48699;0.000;0.000;2023-05-06T14:20:30;19.83;;;9.98;;
62623;SDS011;48699;0.000;0.000;2023-05-06T14:22:55;23.33;;;10.80;;
62623;SDS011;48699;0.000;0.000;2023-05-06T14:25:21;20.77;;;10.80;;
62623;SDS011;48699;0.000;0.000;2023-05-06T14:27:51;21.55;;;9.95;;
62623;SDS011;48699;0.000;0.000;2023-05-06T14:30:19;23.48;;;10.75;;
62623;SDS011;48699;0.000;0.000;2023-05-06T14:32:45;23.08;;;10.95;;
62623;SDS011;48699;0.000;0.000;2023-05-06T14:35:11;21.77;;;10.77;;
62623;SDS011;48699;0.000;0.000;2023-05-06T14:37:36;22.35;;;11.73;;
62623;SDS011;48699;0.000;0.000;2023-05-06T14:40:02;24.33;;;10.52;;
62623;SDS011;48699;0.000;0.000;2023-05-06T14:42:28;20.52;;;10.90;;
62623;SDS011;48699;0.000;0.000;2023-05-06T14:44:54;22.35;;;10.57;;
62623;SDS011;48699;0.000;0.000;2023-05-06T14:47:20;21.55;;;9.43;;
62623;SDS011;48699;0.000;0.000;2023-05-06T14:49:45;23.00;;;11.13;;
62623;SDS011;48699;0.000;0.000;2023-05-06T14:52:10;19.75;;;10.35;;
62623;SDS011;48699;0.000;0.000;2023-05-06T14:54:36;25.15;;;11.73;;
62623;SDS011;48699;0.000;0.000;2023-05-06T14:57:06;23.13;;;11.07;;
62623;SDS011;48699;0.000;0.000;2023-05-06T14:59:35;24.58;;;10.98;;